Terminal Aerodrome Forecast
Issued by NWS Albany, NY

Home | Current Version | Previous Version | Text Only | Print | Product List | Glossary On
Versions: 1 2 3 4 5 6 7 8 9 10 11 12 13 14
000
FTUS41 KALY 201700 RRA
TAFPOU
TAF
KPOU 201749Z 2018/2118 20010G20KT P6SM BKN040
     FM202000 20008G16KT P6SM SCT040
     FM210000 19007KT P6SM BKN040
     FM210300 19005KT P6SM BKN025
     FM210700 VRB03KT 4SM BR VCSH OVC015
     FM211400 20005KT P6SM BKN025 OVC035
     FM211600 21007KT P6SM SCT035 BKN050=

USA.gov is the U.S. government's official web portal to all federal, state and local government web resources and services.